createdAt,value
2018-01-08T00:00:46.691Z,0
2018-01-08T00:01:56.873Z,0
2018-01-08T00:03:06.669Z,0
2018-01-08T00:04:16.743Z,0
2018-01-08T00:05:28.269Z,0
2018-01-08T00:06:38.336Z,0
2018-01-08T00:07:48.420Z,0
2018-01-08T00:08:58.501Z,0
2018-01-08T00:10:08.283Z,0
2018-01-08T00:11:18.078Z,0
2018-01-08T00:12:27.889Z,0
2018-01-08T00:13:37.944Z,0
2018-01-08T00:14:47.992Z,0
2018-01-08T00:15:58.058Z,0
2018-01-08T00:17:07.840Z,0
2018-01-08T00:18:17.382Z,0
2018-01-08T00:19:27.171Z,0
2018-01-08T00:20:37.248Z,0
2018-01-08T00:21:47.309Z,0
2018-01-08T00:22:56.837Z,0
2018-01-08T00:24:06.908Z,0
2018-01-08T00:25:16.961Z,0
2018-01-08T00:26:26.471Z,0
2018-01-08T00:27:36.283Z,0
2018-01-08T00:28:46.402Z,0
2018-01-08T00:29:56.453Z,0
2018-01-08T00:31:06.573Z,0
2018-01-08T00:32:16.608Z,0
2018-01-08T00:33:26.657Z,0
2018-01-08T00:34:36.440Z,0
2018-01-08T00:35:46.499Z,0
2018-01-08T00:36:56.615Z,0
2018-01-08T00:38:06.152Z,0
2018-01-08T00:39:16.224Z,0
2018-01-08T00:40:26.003Z,0
2018-01-08T00:41:35.798Z,0
2018-01-08T00:42:45.591Z,0
2018-01-08T00:43:55.637Z,0
2018-01-08T00:45:05.430Z,0
2018-01-08T00:46:15.219Z,0
2018-01-08T00:47:25.352Z,0
2018-01-08T00:48:35.462Z,0
2018-01-08T00:49:45.506Z,0
2018-01-08T00:50:55.053Z,0
2018-01-08T00:52:05.129Z,0
2018-01-08T00:53:15.205Z,0
2018-01-08T00:54:25.248Z,0
2018-01-08T00:55:35.299Z,0
2018-01-08T00:56:45.116Z,0
2018-01-08T00:57:54.902Z,0
2018-01-08T00:59:04.433Z,0
2018-01-08T01:00:14.566Z,0
2018-01-08T01:01:24.674Z,0
2018-01-08T01:02:34.484Z,0
2018-01-08T01:03:44.271Z,0
2018-01-08T01:04:54.073Z,0
2018-01-08T01:06:03.921Z,0
2018-01-08T01:07:13.706Z,0
2018-01-08T01:08:23.234Z,0
2018-01-08T01:09:33.293Z,0
2018-01-08T01:10:43.094Z,0
2018-01-08T01:11:52.886Z,0
2018-01-08T01:13:03.733Z,0
2018-01-08T01:14:13.784Z,0
2018-01-08T01:15:23.830Z,0
2018-01-08T01:16:33.889Z,0
2018-01-08T01:17:43.947Z,0
2018-01-08T01:18:53.736Z,0
2018-01-08T01:20:03.784Z,0
2018-01-08T01:21:13.854Z,0
2018-01-08T01:22:23.657Z,0
2018-01-08T01:23:33.752Z,0
2018-01-08T01:24:43.554Z,0
2018-01-08T01:25:53.345Z,0
2018-01-08T01:27:03.421Z,0
2018-01-08T01:28:13.227Z,0
2018-01-08T01:29:23.324Z,0
2018-01-08T01:30:33.121Z,0
2018-01-08T01:31:43.175Z,0
2018-01-08T01:32:52.979Z,0
2018-01-08T01:34:02.765Z,0
2018-01-08T01:35:12.872Z,0
2018-01-08T01:36:22.943Z,0
2018-01-08T01:37:33.007Z,0
2018-01-08T01:38:43.141Z,0
2018-01-08T01:39:52.927Z,0
2018-01-08T01:41:02.973Z,0
2018-01-08T01:42:12.774Z,0
2018-01-08T01:43:22.557Z,0
2018-01-08T01:44:32.612Z,0
2018-01-08T01:45:42.660Z,0
2018-01-08T01:46:52.449Z,0
2018-01-08T01:48:02.495Z,0
2018-01-08T01:49:12.552Z,0
2018-01-08T01:50:22.342Z,0
2018-01-08T01:51:32.398Z,0
2018-01-08T01:52:42.487Z,0
2018-01-08T01:53:52.272Z,0
2018-01-08T01:55:01.819Z,0
2018-01-08T01:56:11.882Z,0
2018-01-08T01:57:21.671Z,0
2018-01-08T01:58:31.747Z,0
2018-01-08T01:59:41.535Z,0
2018-01-08T02:00:51.342Z,0
2018-01-08T02:02:01.142Z,0
2018-01-08T02:03:11.204Z,0
2018-01-08T02:04:21.322Z,0
2018-01-08T02:05:31.375Z,0
2018-01-08T02:06:41.477Z,0
2018-01-08T02:07:51.551Z,0
2018-01-08T02:09:01.351Z,0
2018-01-08T02:10:11.474Z,0
2018-01-08T02:11:21.532Z,0
2018-01-08T02:12:31.326Z,0
2018-01-08T02:13:41.112Z,0
2018-01-08T02:14:51.179Z,0
2018-01-08T02:16:00.977Z,0
2018-01-08T02:17:10.764Z,0
2018-01-08T02:18:20.589Z,0
2018-01-08T02:19:30.386Z,0
2018-01-08T02:20:40.439Z,0
2018-01-08T02:21:50.604Z,0
2018-01-08T02:23:00.640Z,0
2018-01-08T02:24:10.700Z,0
2018-01-08T02:25:20.488Z,0
2018-01-08T02:26:30.568Z,0
2018-01-08T02:27:40.648Z,0
2018-01-08T02:28:50.185Z,0
2018-01-08T02:29:59.984Z,0
2018-01-08T02:31:10.049Z,0
2018-01-08T02:32:20.101Z,0
2018-01-08T02:33:30.170Z,0
2018-01-08T02:34:40.410Z,0
2018-01-08T02:35:50.219Z,0
2018-01-08T02:37:00.349Z,0
2018-01-08T02:38:10.418Z,0
2018-01-08T02:39:20.326Z,0
2018-01-08T02:40:30.378Z,0
2018-01-08T02:41:40.432Z,0
2018-01-08T02:42:50.492Z,0
2018-01-08T02:44:00.650Z,0
2018-01-08T02:45:10.199Z,0
2018-01-08T02:46:20.251Z,0
2018-01-08T02:47:32.413Z,0
2018-01-08T02:48:42.468Z,0
2018-01-08T02:49:52.281Z,0
2018-01-08T02:51:02.447Z,0
2018-01-08T02:52:12.505Z,0
2018-01-08T02:53:22.038Z,0
2018-01-08T02:54:32.105Z,0
2018-01-08T02:55:42.190Z,0
2018-01-08T02:56:52.289Z,0
2018-01-08T02:58:02.104Z,0
2018-01-08T02:59:12.167Z,0
2018-01-08T03:00:22.673Z,0
2018-01-08T03:01:32.848Z,0
2018-01-08T03:02:42.913Z,0
2018-01-08T03:34:33.995Z,0
2018-01-08T03:35:43.802Z,0
2018-01-08T03:36:53.895Z,0
2018-01-08T03:38:03.945Z,0
2018-01-08T03:39:13.993Z,0
2018-01-08T03:40:24.094Z,0
2018-01-08T03:41:33.901Z,0
2018-01-08T03:42:43.970Z,0
2018-01-08T03:43:53.758Z,0
2018-01-08T03:45:03.568Z,0
2018-01-08T03:46:13.631Z,0
2018-01-08T03:47:23.688Z,0
2018-01-08T03:48:33.747Z,0
2018-01-08T03:49:43.613Z,0
2018-01-08T03:50:53.683Z,0
2018-01-08T03:52:03.747Z,0
2018-01-08T03:53:13.799Z,0
2018-01-08T03:54:23.858Z,0
2018-01-08T03:55:33.659Z,0
2018-01-08T03:56:43.466Z,0
2018-01-08T03:57:53.565Z,0
2018-01-08T03:59:03.606Z,0
2018-01-08T04:00:13.390Z,0
2018-01-08T04:01:23.458Z,0
2018-01-08T04:02:33.501Z,0
2018-01-08T04:03:43.611Z,0
2018-01-08T04:04:53.405Z,0
2018-01-08T04:06:03.461Z,0
2018-01-08T04:07:13.531Z,0
2018-01-08T04:08:23.566Z,0
2018-01-08T04:09:34.871Z,0
2018-01-08T04:10:44.666Z,0
2018-01-08T04:11:54.732Z,0
2018-01-08T04:13:04.825Z,0
2018-01-08T04:14:14.890Z,0
2018-01-08T04:15:25.003Z,0
2018-01-08T04:16:34.826Z,0
2018-01-08T04:17:44.624Z,0
2018-01-08T04:18:55.083Z,0
2018-01-08T04:20:05.134Z,0
2018-01-08T04:21:14.762Z,0
2018-01-08T04:22:24.813Z,0
2018-01-08T04:23:34.861Z,0
2018-01-08T04:24:44.909Z,0
2018-01-08T04:25:54.486Z,0
2018-01-08T04:27:04.336Z,0
2018-01-08T04:28:15.175Z,0
2018-01-08T04:29:25.238Z,0
2018-01-08T04:30:35.033Z,0
2018-01-08T04:31:45.099Z,0
2018-01-08T04:32:54.952Z,0
2018-01-08T04:34:04.752Z,0
2018-01-08T04:35:14.807Z,0
2018-01-08T04:36:24.846Z,0
2018-01-08T04:37:34.891Z,0
2018-01-08T04:38:44.944Z,0
2018-01-08T04:39:55.003Z,0
2018-01-08T04:41:04.544Z,0
2018-01-08T04:42:14.346Z,0
2018-01-08T04:43:24.392Z,0
2018-01-08T04:44:34.475Z,0
2018-01-08T04:45:44.540Z,0
2018-01-08T04:46:54.337Z,0
2018-01-08T04:48:04.399Z,0
2018-01-08T04:49:14.197Z,0
2018-01-08T04:50:24.310Z,0
2018-01-08T04:51:34.110Z,0
2018-01-08T04:52:43.637Z,0
2018-01-08T04:53:53.160Z,0
2018-01-08T04:55:02.951Z,0
2018-01-08T04:56:13.007Z,0
2018-01-08T04:57:22.810Z,0
2018-01-08T04:58:32.867Z,0
2018-01-08T04:59:43.009Z,0
2018-01-08T05:00:52.803Z,0
2018-01-08T05:02:02.865Z,0
2018-01-08T05:03:12.918Z,0
2018-01-08T05:04:22.967Z,0
2018-01-08T05:05:33.077Z,0
2018-01-08T05:06:42.868Z,0
2018-01-08T05:07:52.663Z,0
2018-01-08T05:09:02.457Z,0
2018-01-08T05:10:12.515Z,0
2018-01-08T05:11:22.305Z,0
2018-01-08T05:12:32.106Z,0
2018-01-08T05:13:41.943Z,0
2018-01-08T05:14:51.999Z,0
2018-01-08T05:16:01.834Z,0
2018-01-08T05:17:11.895Z,0
2018-01-08T05:18:21.951Z,0
2018-01-08T05:19:32.044Z,0
2018-01-08T05:20:41.843Z,0
2018-01-08T05:21:51.680Z,0
2018-01-08T05:23:01.788Z,0
2018-01-08T05:24:11.868Z,0
2018-01-08T05:25:21.961Z,0
2018-01-08T05:26:31.500Z,0
2018-01-08T05:27:41.589Z,0
2018-01-08T05:28:51.650Z,0
2018-01-08T05:30:01.706Z,0
2018-01-08T05:31:11.486Z,0
2018-01-08T05:32:21.529Z,0
2018-01-08T05:33:31.328Z,0
2018-01-08T05:34:41.373Z,0
2018-01-08T05:35:51.450Z,0
2018-01-08T05:37:01.253Z,0
2018-01-08T05:38:11.066Z,0
2018-01-08T05:39:21.112Z,0
2018-01-08T05:40:31.236Z,0
2018-01-08T05:41:41.059Z,0
2018-01-08T05:42:51.113Z,0
2018-01-08T05:44:00.911Z,0
2018-01-08T05:45:10.970Z,0
2018-01-08T05:46:21.026Z,0
2018-01-08T05:47:30.810Z,0
2018-01-08T05:48:40.622Z,0
2018-01-08T05:49:50.411Z,0
2018-01-08T05:50:59.950Z,0
2018-01-08T05:52:10.001Z,0
2018-01-08T05:53:20.102Z,0
2018-01-08T05:54:30.175Z,0
2018-01-08T05:55:40.241Z,0
2018-01-08T05:56:50.293Z,0
2018-01-08T05:58:00.080Z,0
2018-01-08T05:59:10.146Z,0
2018-01-08T06:00:20.230Z,0
2018-01-08T06:01:30.279Z,0
2018-01-08T06:02:40.074Z,0
2018-01-08T06:03:50.137Z,0
2018-01-08T06:05:00.298Z,0
2018-01-08T06:06:10.353Z,0
2018-01-08T06:07:20.420Z,0
2018-01-08T06:08:31.767Z,0
2018-01-08T06:09:41.551Z,0
2018-01-08T06:10:51.665Z,0
2018-01-08T06:12:01.784Z,0
2018-01-08T06:13:11.838Z,0
2018-01-08T06:14:21.624Z,0
2018-01-08T06:15:31.161Z,0
2018-01-08T06:16:41.312Z,0
2018-01-08T06:17:50.850Z,0
2018-01-08T06:19:00.941Z,0
2018-01-08T06:20:10.224Z,0
2018-01-08T06:21:20.290Z,0
2018-01-08T06:22:29.836Z,0
2018-01-08T06:23:39.905Z,0
2018-01-08T06:24:49.959Z,0
2018-01-08T06:25:59.758Z,0
2018-01-08T06:27:09.554Z,0
2018-01-08T06:28:19.456Z,0
2018-01-08T06:29:29.268Z,0
2018-01-08T06:30:39.065Z,0
2018-01-08T06:31:49.111Z,0
2018-01-08T06:32:59.224Z,0
2018-01-08T06:34:09.030Z,0
2018-01-08T06:35:19.072Z,0
2018-01-08T06:36:29.177Z,0
2018-01-08T06:37:39.232Z,0
2018-01-08T06:38:49.281Z,0
2018-01-08T06:39:59.089Z,0
2018-01-08T06:41:09.135Z,0
2018-01-08T06:42:19.188Z,0
2018-01-08T06:43:29.229Z,0
2018-01-08T06:44:39.025Z,0
2018-01-08T06:45:48.821Z,0
2018-01-08T06:46:58.921Z,0
2018-01-08T06:48:08.801Z,0
2018-01-08T06:49:18.587Z,0
2018-01-08T06:50:28.644Z,0
2018-01-08T06:51:38.704Z,0
2018-01-08T06:52:49.717Z,0
2018-01-08T06:53:59.773Z,0
2018-01-08T06:55:09.320Z,0
2018-01-08T06:56:19.363Z,0
2018-01-08T06:57:29.463Z,0
2018-01-08T06:58:39.548Z,0
2018-01-08T06:59:50.697Z,0
2018-01-08T07:01:00.754Z,0
2018-01-08T07:02:10.294Z,0
2018-01-08T07:03:19.832Z,0
2018-01-08T07:04:29.925Z,0
2018-01-08T07:05:39.973Z,0
2018-01-08T07:06:50.008Z,0
2018-01-08T07:07:59.800Z,0
2018-01-08T07:09:09.872Z,0
2018-01-08T07:10:19.736Z,0
2018-01-08T07:11:29.799Z,0
2018-01-08T07:12:39.871Z,0
2018-01-08T07:13:49.662Z,5
2018-01-08T07:14:59.463Z,5
2018-01-08T07:16:09.258Z,5
2018-01-08T07:17:19.314Z,5
2018-01-08T07:18:29.112Z,5
2018-01-08T07:19:38.912Z,5
2018-01-08T07:20:48.706Z,5
2018-01-08T07:21:58.496Z,5
2018-01-08T07:23:08.292Z,5
2018-01-08T07:24:18.092Z,5
2018-01-08T07:25:27.886Z,5
2018-01-08T07:26:37.694Z,5
2018-01-08T07:27:47.758Z,5
2018-01-08T07:28:57.806Z,5
2018-01-08T07:30:07.628Z,5
2018-01-08T07:31:17.420Z,10
2018-01-08T07:32:27.459Z,10
2018-01-08T07:33:37.313Z,10
2018-01-08T07:34:47.361Z,10
2018-01-08T07:35:57.415Z,10
2018-01-08T07:37:07.466Z,10
2018-01-08T07:38:17.510Z,15
2018-01-08T07:39:27.576Z,15
2018-01-08T07:40:37.661Z,15
2018-01-08T07:41:47.763Z,15
2018-01-08T07:42:57.807Z,15
2018-01-08T07:44:07.865Z,15
2018-01-08T07:45:19.034Z,15
2018-01-08T07:46:29.081Z,15
2018-01-08T07:47:38.872Z,15
2018-01-08T07:48:48.660Z,15
2018-01-08T07:49:58.445Z,20
2018-01-08T07:51:08.236Z,20
2018-01-08T07:52:18.045Z,20
2018-01-08T07:53:28.109Z,20
2018-01-08T07:54:38.190Z,20
2018-01-08T07:55:48.255Z,20
2018-01-08T07:56:58.314Z,20
2018-01-08T07:58:08.371Z,25
2018-01-08T07:59:18.164Z,25
2018-01-08T08:00:28.219Z,25
2018-01-08T08:01:37.743Z,20
2018-01-08T08:02:47.535Z,20
2018-01-08T08:03:57.632Z,25
2018-01-08T08:05:07.706Z,25
2018-01-08T08:06:17.758Z,20
2018-01-08T08:07:27.916Z,20
2018-01-08T08:08:37.737Z,25
2018-01-08T08:09:47.794Z,20
2018-01-08T08:10:57.852Z,20
2018-01-08T08:12:07.920Z,20
2018-01-08T08:13:18.087Z,20
2018-01-08T08:14:28.150Z,20
2018-01-08T08:15:38.202Z,20
2018-01-08T08:16:48.000Z,20
2018-01-08T08:17:58.055Z,20
2018-01-08T08:19:08.160Z,20
2018-01-08T08:20:18.235Z,20
2018-01-08T08:21:28.301Z,20
2018-01-08T08:22:39.085Z,20
2018-01-08T08:23:48.628Z,15
2018-01-08T08:24:58.427Z,20
2018-01-08T08:26:08.478Z,20
2018-01-08T08:27:18.544Z,25
2018-01-08T08:28:28.736Z,20
2018-01-08T08:29:38.793Z,20
2018-01-08T08:30:48.891Z,20
2018-01-08T08:31:58.936Z,25
2018-01-08T08:33:09.040Z,20
2018-01-08T08:34:18.834Z,20
2018-01-08T08:35:28.892Z,25
2018-01-08T08:36:38.988Z,25
2018-01-08T08:37:49.044Z,30
2018-01-08T08:38:59.086Z,30
2018-01-08T08:40:09.183Z,35
2018-01-08T08:41:19.248Z,35
2018-01-08T08:42:29.313Z,35
2018-01-08T08:43:39.370Z,35
2018-01-08T08:44:49.434Z,35
2018-01-08T08:45:59.478Z,40
2018-01-08T08:47:09.012Z,35
2018-01-08T08:48:18.795Z,35
2018-01-08T08:49:28.592Z,30
2018-01-08T08:50:38.635Z,25
2018-01-08T08:51:48.147Z,20
2018-01-08T08:52:58.184Z,20
2018-01-08T08:54:08.191Z,20
2018-01-08T08:55:18.291Z,25
2018-01-08T08:56:27.819Z,25
2018-01-08T08:57:37.872Z,25
2018-01-08T08:58:47.662Z,30
2018-01-08T08:59:58.508Z,30
2018-01-08T09:01:08.303Z,30
2018-01-08T09:02:18.394Z,25
2018-01-08T09:03:28.448Z,25
2018-01-08T09:04:38.222Z,30
2018-01-08T09:05:48.029Z,30
2018-01-08T09:06:57.821Z,30
2018-01-08T09:08:07.877Z,30
2018-01-08T09:09:17.993Z,30
2018-01-08T09:10:28.054Z,30
2018-01-08T09:11:38.157Z,25
2018-01-08T09:12:48.226Z,30
2018-01-08T09:13:58.282Z,30
2018-01-08T09:15:09.329Z,30
2018-01-08T09:16:19.149Z,30
2018-01-08T09:17:29.210Z,30
2018-01-08T09:18:39.263Z,30
2018-01-08T09:19:49.333Z,30
2018-01-08T09:20:59.379Z,25
2018-01-08T09:22:09.442Z,25
2018-01-08T09:23:19.500Z,25
2018-01-08T09:24:29.610Z,25
2018-01-08T09:25:39.406Z,25
2018-01-08T09:26:49.469Z,25
2018-01-08T09:27:59.257Z,25
2018-01-08T09:29:09.055Z,25
2018-01-08T09:30:18.909Z,25
2018-01-08T09:31:28.972Z,25
2018-01-08T09:32:39.043Z,25
2018-01-08T09:33:49.103Z,20
2018-01-08T09:34:58.946Z,20
2018-01-08T09:36:09.008Z,25
2018-01-08T09:37:18.814Z,25
2018-01-08T09:38:28.622Z,25
2018-01-08T09:39:38.461Z,25
2018-01-08T09:40:48.519Z,30
2018-01-08T09:41:58.683Z,25
2018-01-08T09:43:09.814Z,30
2018-01-08T09:44:19.886Z,30
2018-01-08T09:45:30.194Z,30
2018-01-08T09:46:39.989Z,25
2018-01-08T09:47:50.114Z,25
2018-01-08T09:49:00.193Z,25
2018-01-08T09:50:10.288Z,25
2018-01-08T09:51:19.883Z,25
2018-01-08T09:52:30.018Z,20
2018-01-08T09:53:39.568Z,25
2018-01-08T09:54:49.645Z,25
2018-01-08T09:55:59.723Z,30
2018-01-08T09:57:09.577Z,30
2018-01-08T09:58:19.682Z,30
2018-01-08T09:59:29.886Z,30
2018-01-08T10:00:41.233Z,25
2018-01-08T10:01:51.347Z,20
2018-01-08T10:03:01.435Z,15
2018-01-08T10:04:11.260Z,10
2018-01-08T10:05:21.345Z,20
2018-01-08T10:06:31.430Z,30
2018-01-08T10:07:41.272Z,30
2018-01-08T10:08:51.142Z,30
2018-01-08T10:10:01.516Z,30
2018-01-08T10:11:11.427Z,30
2018-01-08T10:12:21.551Z,30
2018-01-08T10:13:31.647Z,35
2018-01-08T10:14:41.593Z,35
2018-01-08T10:15:51.751Z,35
2018-01-08T10:17:02.662Z,35
2018-01-08T10:18:13.173Z,35
2018-01-08T10:19:22.976Z,35
2018-01-08T10:20:33.072Z,35
2018-01-08T10:21:42.884Z,35
2018-01-08T10:22:52.968Z,40
2018-01-08T10:24:03.041Z,40
2018-01-08T10:25:12.841Z,40
2018-01-08T10:26:22.940Z,40
2018-01-08T10:27:33.041Z,40
2018-01-08T10:28:43.133Z,40
2018-01-08T10:29:52.991Z,40
2018-01-08T10:31:03.126Z,40
2018-01-08T10:32:14.298Z,40
2018-01-08T10:33:24.420Z,40
2018-01-08T10:34:34.497Z,40
2018-01-08T10:35:44.608Z,40
2018-01-08T10:36:54.681Z,45
2018-01-08T10:38:04.511Z,40
2018-01-08T10:39:14.627Z,40
2018-01-08T10:40:24.771Z,35
2018-01-08T10:41:34.840Z,35
2018-01-08T10:42:44.753Z,30
2018-01-08T10:43:54.831Z,30
2018-01-08T10:45:05.002Z,30
2018-01-08T10:46:15.281Z,35
2018-01-08T10:47:25.366Z,35
2018-01-08T10:48:36.850Z,40
2018-01-08T10:49:46.922Z,35
2018-01-08T10:50:57.068Z,40
2018-01-08T10:52:07.166Z,40
2018-01-08T10:53:16.996Z,40
2018-01-08T10:54:26.547Z,35
2018-01-08T10:55:36.800Z,35
2018-01-08T10:56:46.973Z,35
2018-01-08T10:57:57.175Z,35
2018-01-08T10:59:08.840Z,35
2018-01-08T11:00:18.939Z,40
2018-01-08T11:01:28.766Z,40
2018-01-08T11:02:38.956Z,40
2018-01-08T11:03:49.037Z,40
2018-01-08T11:04:59.226Z,40
2018-01-08T11:06:09.316Z,40
2018-01-08T11:07:19.167Z,40
2018-01-08T11:08:29.237Z,40
2018-01-08T11:09:39.292Z,40
2018-01-08T11:10:49.361Z,40
2018-01-08T11:11:59.186Z,40
2018-01-08T11:13:09.244Z,35
2018-01-08T11:14:19.155Z,35
2018-01-08T11:15:29.247Z,35
2018-01-08T11:16:39.046Z,35
2018-01-08T11:17:49.213Z,35
2018-01-08T11:18:58.745Z,35
2018-01-08T11:20:08.860Z,35
2018-01-08T11:21:18.927Z,35
2018-01-08T11:22:29.156Z,35
2018-01-08T11:23:39.218Z,35
2018-01-08T11:24:49.295Z,35
2018-01-08T11:25:59.166Z,35
2018-01-08T11:27:09.284Z,30
2018-01-08T11:28:20.714Z,35
2018-01-08T11:29:30.769Z,35
2018-01-08T11:30:40.872Z,35
2018-01-08T11:31:50.946Z,35
2018-01-08T11:33:01.021Z,35
2018-01-08T11:34:11.137Z,35
2018-01-08T11:35:21.231Z,35
2018-01-08T11:36:31.087Z,35
2018-01-08T11:37:41.212Z,35
2018-01-08T11:38:51.326Z,35
2018-01-08T11:40:01.411Z,40
2018-01-08T11:41:11.258Z,35
2018-01-08T11:42:21.396Z,35
2018-01-08T11:43:31.524Z,35
2018-01-08T11:44:41.582Z,35
2018-01-08T11:45:51.656Z,35
2018-01-08T11:47:01.740Z,35
2018-01-08T11:48:12.180Z,35
2018-01-08T11:49:22.288Z,30
2018-01-08T11:50:32.427Z,30
2018-01-08T11:51:42.550Z,30
2018-01-08T11:52:52.688Z,30
2018-01-08T11:54:02.809Z,30
2018-01-08T11:55:12.677Z,35
2018-01-08T11:56:22.756Z,35
2018-01-08T11:57:32.836Z,35
2018-01-08T11:58:42.940Z,35
2018-01-08T11:59:53.063Z,35
2018-01-08T12:01:03.193Z,35
2018-01-08T12:02:13.034Z,35
2018-01-08T12:03:22.866Z,35
2018-01-08T12:04:32.940Z,35
2018-01-08T12:05:42.755Z,35
2018-01-08T12:06:52.957Z,35
2018-01-08T12:08:03.043Z,35
2018-01-08T12:09:13.116Z,35
2018-01-08T12:10:22.972Z,35
2018-01-08T12:11:33.026Z,35
2018-01-08T12:12:43.178Z,35
2018-01-08T12:13:53.307Z,35
2018-01-08T12:15:03.407Z,35
2018-01-08T12:16:13.477Z,35
2018-01-08T12:17:23.282Z,30
2018-01-08T12:18:33.363Z,30
2018-01-08T12:19:44.854Z,30
2018-01-08T12:20:54.972Z,25
2018-01-08T12:22:04.863Z,25
2018-01-08T12:23:15.011Z,25
2018-01-08T12:24:25.145Z,25
2018-01-08T12:25:35.302Z,25
2018-01-08T12:26:45.136Z,25
2018-01-08T12:27:55.218Z,25
2018-01-08T12:29:05.332Z,25
2018-01-08T12:30:15.479Z,25
2018-01-08T12:31:25.559Z,25
2018-01-08T12:32:35.383Z,25
2018-01-08T12:33:45.493Z,25
2018-01-08T12:34:55.552Z,25
2018-01-08T12:36:05.713Z,25
2018-01-08T12:37:15.545Z,25
2018-01-08T12:38:25.632Z,25
2018-01-08T12:39:35.716Z,25
2018-01-08T12:40:45.256Z,25
2018-01-08T12:41:55.164Z,20
2018-01-08T12:43:05.050Z,20
2018-01-08T12:44:15.127Z,20
2018-01-08T12:45:24.940Z,20
2018-01-08T12:46:35.019Z,20
2018-01-08T12:47:44.838Z,20
2018-01-08T12:48:54.908Z,20
2018-01-08T12:50:05.070Z,15
2018-01-08T12:51:15.145Z,15
2018-01-08T12:52:25.417Z,15
2018-01-08T12:53:35.549Z,15
2018-01-08T12:54:45.424Z,15
2018-01-08T12:55:55.217Z,20
2018-01-08T12:57:05.298Z,20
2018-01-08T12:58:15.373Z,20
2018-01-08T12:59:25.417Z,20
2018-01-08T13:00:35.497Z,20
2018-01-08T13:01:45.305Z,20
2018-01-08T13:02:55.389Z,20
2018-01-08T13:04:05.236Z,20
2018-01-08T13:05:15.371Z,20
2018-01-08T13:06:25.444Z,25
2018-01-08T13:07:35.553Z,25
2018-01-08T13:08:45.364Z,25
2018-01-08T13:09:55.174Z,25
2018-01-08T13:11:05.030Z,25
2018-01-08T13:12:14.965Z,25
2018-01-08T13:13:25.046Z,25
2018-01-08T13:14:35.130Z,20
2018-01-08T13:15:45.205Z,20
2018-01-08T13:16:54.767Z,20
2018-01-08T13:18:04.582Z,20
2018-01-08T13:19:14.690Z,20
2018-01-08T13:20:24.762Z,20
2018-01-08T13:21:34.845Z,20
2018-01-08T13:22:45.803Z,20
2018-01-08T13:23:55.710Z,20
2018-01-08T13:25:05.818Z,20
2018-01-08T13:26:15.674Z,20
2018-01-08T13:27:25.822Z,20
2018-01-08T13:28:35.907Z,20
2018-01-08T13:29:46.000Z,20
2018-01-08T13:30:56.080Z,20
2018-01-08T13:32:07.042Z,20
2018-01-08T13:33:16.889Z,20
2018-01-08T13:34:27.244Z,20
2018-01-08T13:35:37.379Z,20
2018-01-08T13:36:47.513Z,20
2018-01-08T13:37:57.604Z,15
2018-01-08T13:39:08.031Z,15
2018-01-08T13:40:18.100Z,15
2018-01-08T13:41:27.935Z,15
2018-01-08T13:42:38.091Z,15
2018-01-08T13:43:47.853Z,15
2018-01-08T13:44:57.953Z,15
2018-01-08T13:46:07.766Z,15
2018-01-08T13:47:17.850Z,10
2018-01-08T13:48:27.968Z,10
2018-01-08T13:49:37.805Z,10
2018-01-08T13:50:47.618Z,10
2018-01-08T13:51:57.708Z,10
2018-01-08T13:53:07.877Z,10
2018-01-08T13:54:17.704Z,10
2018-01-08T13:55:27.789Z,10
2018-01-08T13:56:37.928Z,10
2018-01-08T13:57:48.063Z,15
2018-01-08T13:58:57.913Z,10
2018-01-08T14:00:08.020Z,10
2018-01-08T14:01:18.125Z,10
2018-01-08T14:02:27.726Z,10
2018-01-08T14:03:37.786Z,10
2018-01-08T14:04:47.656Z,10
2018-01-08T14:05:57.732Z,10
2018-01-08T14:07:07.839Z,10
2018-01-08T14:08:17.944Z,10
2018-01-08T14:09:28.005Z,10
2018-01-08T14:10:37.884Z,10
2018-01-08T14:11:47.986Z,10
2018-01-08T14:12:58.158Z,10
2018-01-08T14:14:08.288Z,10
2018-01-08T14:15:18.398Z,10
2018-01-08T14:16:28.252Z,5
2018-01-08T14:17:37.969Z,5
2018-01-08T14:18:47.891Z,5
2018-01-08T14:19:57.996Z,5
2018-01-08T14:21:08.208Z,5
2018-01-08T14:22:18.437Z,5
2018-01-08T14:23:28.255Z,5
2018-01-08T14:24:38.379Z,5
2018-01-08T14:25:48.546Z,5
2018-01-08T14:26:58.659Z,5
2018-01-08T14:28:08.759Z,5
2018-01-08T14:29:19.937Z,5
2018-01-08T14:30:30.399Z,5
2018-01-08T14:31:40.480Z,5
2018-01-08T14:32:50.326Z,5
2018-01-08T14:34:00.445Z,5
2018-01-08T14:35:10.598Z,5
2018-01-08T14:36:20.722Z,5
2018-01-08T14:37:31.031Z,5
2018-01-08T14:38:40.909Z,5
2018-01-08T14:39:50.859Z,0
2018-01-08T14:41:00.959Z,0
2018-01-08T14:42:11.079Z,0
2018-01-08T14:43:21.174Z,0
2018-01-08T14:44:31.295Z,0
2018-01-08T14:45:41.481Z,0
2018-01-08T14:46:51.559Z,0
2018-01-08T14:48:01.701Z,0
2018-01-08T14:49:11.527Z,0
2018-01-08T14:50:21.603Z,0
2018-01-08T14:51:31.166Z,0
2018-01-08T14:52:41.512Z,0
2018-01-08T14:53:51.356Z,0
2018-01-08T14:55:01.489Z,0
2018-01-08T14:56:11.325Z,0
2018-01-08T14:57:21.429Z,0
2018-01-08T14:58:31.532Z,0
2018-01-08T14:59:41.690Z,0
2018-01-08T15:00:51.804Z,0
2018-01-08T15:02:01.886Z,0
2018-01-08T15:03:12.013Z,0
2018-01-08T15:04:22.090Z,0
2018-01-08T15:05:31.956Z,0
2018-01-08T15:06:42.076Z,0
2018-01-08T15:07:51.996Z,0
2018-01-08T15:09:02.148Z,0
2018-01-08T15:10:12.253Z,0
2018-01-08T15:11:22.322Z,0
2018-01-08T15:12:34.031Z,0
2018-01-08T15:13:44.141Z,0
2018-01-08T15:14:54.327Z,0
2018-01-08T15:16:06.015Z,0
2018-01-08T15:17:16.142Z,0
2018-01-08T15:18:26.404Z,0
2018-01-08T15:19:36.209Z,0
2018-01-08T15:20:46.018Z,0
2018-01-08T15:21:56.111Z,0
2018-01-08T15:23:06.187Z,0
2018-01-08T15:24:17.737Z,0
2018-01-08T15:25:27.930Z,0
2018-01-08T15:26:37.788Z,0
2018-01-08T15:27:47.949Z,0
2018-01-08T15:28:57.799Z,0
2018-01-08T15:30:08.022Z,0
2018-01-08T15:31:18.145Z,0
2018-01-08T15:32:28.327Z,0
2018-01-08T15:33:39.303Z,0
2018-01-08T15:34:49.397Z,0
2018-01-08T15:35:59.470Z,0
2018-01-08T15:37:09.568Z,0
2018-01-08T15:38:20.155Z,0
2018-01-08T15:39:30.302Z,0
2018-01-08T15:40:40.520Z,0
2018-01-08T15:41:50.608Z,0
2018-01-08T15:43:00.922Z,0
2018-01-08T15:44:10.743Z,0
2018-01-08T15:45:21.902Z,0
2018-01-08T15:46:31.723Z,0
2018-01-08T15:47:41.803Z,0
2018-01-08T15:48:51.120Z,0
2018-01-08T15:50:01.282Z,0
2018-01-08T15:51:12.361Z,0
2018-01-08T15:52:22.184Z,0
2018-01-08T15:53:32.278Z,0
2018-01-08T15:54:42.506Z,0
2018-01-08T15:55:52.428Z,0
2018-01-08T15:57:02.275Z,0
2018-01-08T15:58:12.075Z,0
2018-01-08T15:59:21.968Z,0
2018-01-08T16:00:32.105Z,0
2018-01-08T16:01:44.068Z,0
2018-01-08T16:02:54.222Z,0
2018-01-08T16:04:04.411Z,0
2018-01-08T16:05:14.906Z,0
2018-01-08T16:06:24.220Z,0
2018-01-08T16:07:34.525Z,0
2018-01-08T16:08:44.400Z,0
2018-01-08T16:09:55.523Z,0
2018-01-08T16:11:05.612Z,0
2018-01-08T16:12:15.934Z,0
2018-01-08T16:13:25.762Z,0
2018-01-08T16:14:37.023Z,0
2018-01-08T16:15:47.166Z,0
2018-01-08T16:16:57.301Z,0
2018-01-08T16:18:07.385Z,0
2018-01-08T16:19:17.296Z,0
2018-01-08T16:20:27.477Z,0
2018-01-08T16:21:37.319Z,0
2018-01-08T16:22:47.365Z,0
2018-01-08T16:23:57.487Z,0
2018-01-08T16:25:07.604Z,0
2018-01-08T16:26:17.697Z,0
2018-01-08T16:27:30.637Z,0
2018-01-08T16:28:41.256Z,0
2018-01-08T16:29:51.369Z,0
2018-01-08T16:31:01.468Z,0
2018-01-08T16:32:11.560Z,0
2018-01-08T16:33:21.905Z,0
2018-01-08T16:34:31.987Z,0
2018-01-08T16:35:42.070Z,0
2018-01-08T16:36:54.425Z,0
2018-01-08T16:38:04.685Z,0
2018-01-08T16:39:14.771Z,0
2018-01-08T16:40:26.720Z,0
2018-01-08T16:41:36.831Z,0
2018-01-08T16:42:46.968Z,0
2018-01-08T16:43:56.794Z,0
2018-01-08T16:45:06.896Z,0
2018-01-08T16:46:16.986Z,0
2018-01-08T16:47:26.816Z,0
2018-01-08T16:48:36.973Z,0
2018-01-08T16:49:47.045Z,0
2018-01-08T16:50:57.122Z,0
2018-01-08T16:52:07.260Z,0
2018-01-08T16:53:18.731Z,0
2018-01-08T16:54:28.699Z,0
2018-01-08T16:55:38.535Z,0
2018-01-08T16:56:48.611Z,0
2018-01-08T16:57:58.434Z,0
2018-01-08T16:59:08.269Z,0
2018-01-08T17:00:18.180Z,0
2018-01-08T17:01:28.272Z,0
2018-01-08T17:02:38.887Z,0
2018-01-08T17:03:49.714Z,0
2018-01-08T17:05:00.607Z,0
2018-01-08T17:06:10.704Z,0
2018-01-08T17:07:21.889Z,0
2018-01-08T17:08:31.998Z,0
2018-01-08T17:09:42.086Z,0
2018-01-08T17:10:51.965Z,0
2018-01-08T17:12:02.113Z,0
2018-01-08T17:13:13.214Z,0
2018-01-08T17:14:23.069Z,0
2018-01-08T17:15:32.911Z,0
2018-01-08T17:16:42.791Z,0
2018-01-08T17:17:52.948Z,0
2018-01-08T17:19:03.055Z,0
2018-01-08T17:20:13.222Z,0
2018-01-08T17:21:23.314Z,0
2018-01-08T17:22:33.396Z,0
2018-01-08T17:23:43.594Z,0
2018-01-08T17:24:53.429Z,0
2018-01-08T17:26:03.381Z,0
2018-01-08T17:27:13.515Z,0
2018-01-08T17:28:23.474Z,0
2018-01-08T17:29:33.650Z,0
2018-01-08T17:30:43.982Z,0
2018-01-08T17:31:54.166Z,0